Marfa, Texas
Current Conditions -  °F | °C
As of 8:35 PM on Wednesday 17 Dec 2014 (Local Time) from KMRF Reporting Station
Clear Clear  
Wind Chill: 37°   Ceiling: Unl
Heat Index: 37°   Visibility: 10mi
Dew Point: 23°   Wind: 3mph
Humidity: 56%   Direction: 40°NE
Pressure: 30.14"   Gusts: NA
Location:  30.31°N, 104.02°W
Report Text: KMRF 180235Z AUTO 04003KT 10SM CLR 03/M05 A3014 RMK AO1
Loading
Personal Weather Stations






























Interactive Weather Map New forecast layout! Learn more

10-Day Weather Forecast

Advertisements
Track Severe Weather on mobile